Time;durP1;ratioP1;P1;durP2;ratioP2;P2;SDS_P1;SDS_P2;PMS_P1;PMS_P2;Temp;Humidity;BMP_temperature;BMP_pressure;BME280_temperature;BME280_humidity;BME280_pressure;Samples;Min_cycle;Max_cycle;Signal;HPM_P1;HPM_P2
2022/09/28 04:15:24;;;;;;;;;;;21.50;77.50;;;;;;5382688;23;19925;-74
2022/09/28 04:17:51;;;;;;;;;;;21.50;77.60;;;;;;5035245;28;19976;-74
2022/09/28 04:20:18;;;;;;;;;;;21.50;77.60;;;;;;5035263;28;19975;-74
2022/09/28 04:22:44;;;;;;;;;;;21.50;77.60;;;;;;5035220;28;19995;-73
2022/09/28 04:25:11;;;;;;;;;;;21.50;77.60;;;;;;5035192;28;19980;-73
2022/09/28 04:30:23;;;;;;;;;;;21.50;78.00;;;;;;5035491;28;19928;-75
2022/09/28 04:32:50;;;;;;;;;;;21.50;78.10;;;;;;5035669;28;19925;-73
2022/09/28 04:35:17;;;;;;;;;;;21.50;78.30;;;;;;5034904;28;19965;-73
2022/09/28 04:37:44;;;;;;;;;;;21.50;78.40;;;;;;5035036;28;19990;-73
2022/09/28 04:40:10;;;;;;;;;;;21.50;78.40;;;;;;5035150;28;20015;-73
2022/09/28 04:42:37;;;;;;;;;;;21.50;78.60;;;;;;5034828;28;19968;-71
2022/09/28 04:45:04;;;;;;;;;;;21.50;78.70;;;;;;5034441;28;19971;-72
2022/09/28 04:47:32;;;;;;;;;;;21.50;78.80;;;;;;5034451;28;19932;-71
2022/09/28 04:49:59;;;;;;;;;;;21.60;79.60;;;;;;5034732;28;19972;-71
2022/09/28 04:52:26;;;;;;;;;;;21.60;79.00;;;;;;5034665;28;19968;-72
2022/09/28 04:54:53;;;;;;;;;;;21.60;79.00;;;;;;5034906;28;19931;-72
2022/09/28 04:57:20;;;;;;;;;;;21.50;78.80;;;;;;5034145;28;19976;-72
2022/09/28 04:59:46;;;;;;;;;;;21.50;78.80;;;;;;5034582;28;19964;-71
2022/09/28 05:02:13;;;;;;;;;;;21.50;78.60;;;;;;5034222;28;20396;-72
2022/09/28 05:04:41;;;;;;;;;;;21.50;78.60;;;;;;5034399;28;19925;-72
2022/09/28 05:07:08;;;;;;;;;;;21.50;78.60;;;;;;5034500;28;19990;-73
2022/09/28 05:09:35;;;;;;;;;;;21.50;78.50;;;;;;5034350;28;19976;-73
2022/09/28 05:12:01;;;;;;;;;;;21.50;78.50;;;;;;5034055;28;20392;-73
2022/09/28 05:14:28;;;;;;;;;;;21.50;78.40;;;;;;5034256;28;19983;-74
2022/09/28 05:16:55;;;;;;;;;;;21.50;78.40;;;;;;5034041;28;19991;-76
2022/09/28 05:19:22;;;;;;;;;;;21.50;78.20;;;;;;5034325;28;19929;-77
2022/09/28 05:21:50;;;;;;;;;;;21.50;78.10;;;;;;5034161;28;19976;-76
2022/09/28 05:24:16;;;;;;;;;;;21.50;78.10;;;;;;5034092;28;19995;-79
2022/09/28 05:26:43;;;;;;;;;;;21.50;78.10;;;;;;5034168;28;19970;-75
2022/09/28 05:29:10;;;;;;;;;;;21.60;78.00;;;;;;5034147;28;19925;-76
2022/09/28 05:31:37;;;;;;;;;;;21.50;77.80;;;;;;5034124;28;19972;-76
2022/09/28 05:34:03;;;;;;;;;;;21.50;77.60;;;;;;5034032;28;19967;-76
2022/09/28 05:36:31;;;;;;;;;;;21.50;77.60;;;;;;5033940;28;19960;-76
2022/09/28 05:39:00;;;;;;;;;;;21.50;77.50;;;;;;5033998;28;19925;-76
2022/09/28 05:41:26;;;;;;;;;;;21.50;77.40;;;;;;5034143;28;19925;-76
2022/09/28 05:43:53;;;;;;;;;;;21.50;77.40;;;;;;5033813;28;19925;-77
2022/09/28 05:46:22;;;;;;;;;;;21.50;77.30;;;;;;5034716;28;19929;-77
2022/09/28 05:48:50;;;;;;;;;;;21.50;77.20;;;;;;5033970;28;19933;-76
2022/09/28 05:51:16;;;;;;;;;;;21.50;77.10;;;;;;5034458;28;19971;-75
2022/09/28 05:53:43;;;;;;;;;;;21.60;77.20;;;;;;5033966;28;20003;-76
2022/09/28 05:56:11;;;;;;;;;;;21.50;77.10;;;;;;5033652;28;19979;-75
2022/09/28 05:58:38;;;;;;;;;;;21.50;77.10;;;;;;5033771;28;20039;-75
2022/09/28 06:01:04;;;;;;;;;;;21.50;77.00;;;;;;5033737;28;19925;-76
2022/09/28 06:03:31;;;;;;;;;;;21.50;77.00;;;;;;5033807;28;20010;-76
2022/09/28 06:06:00;;;;;;;;;;;21.50;77.00;;;;;;5033726;28;19976;-76
2022/09/28 06:08:26;;;;;;;;;;;21.50;76.90;;;;;;5033429;28;19999;-76
2022/09/28 06:10:53;;;;;;;;;;;21.50;76.90;;;;;;5033765;28;19971;-76
2022/09/28 06:13:21;;;;;;;;;;;21.50;76.90;;;;;;5033718;28;20062;-76
2022/09/28 06:15:48;;;;;;;;;;;21.50;76.80;;;;;;5033303;28;19972;-76
2022/09/28 06:18:14;;;;;;;;;;;21.50;76.80;;;;;;5033619;28;19973;-76
2022/09/28 06:20:41;;;;;;;;;;;21.50;76.80;;;;;;5033693;28;19975;-76
2022/09/28 06:23:08;;;;;;;;;;;21.50;76.80;;;;;;5033686;28;19979;-76
2022/09/28 06:25:35;;;;;;;;;;;21.50;76.80;;;;;;5033239;28;20384;-76
2022/09/28 06:28:03;;;;;;;;;;;21.50;76.80;;;;;;5033318;28;19925;-76
2022/09/28 06:30:33;;;;;;;;;;;21.50;76.80;;;;;;5033226;28;19957;-76
2022/09/28 06:33:00;;;;;;;;;;;21.50;76.70;;;;;;5033520;28;19968;-76
2022/09/28 06:35:29;;;;;;;;;;;21.50;76.70;;;;;;5033414;28;19972;-76
2022/09/28 06:37:55;;;;;;;;;;;21.50;76.70;;;;;;5033450;28;20016;-76
2022/09/28 06:40:23;;;;;;;;;;;21.50;76.70;;;;;;5033169;28;19972;-76
2022/09/28 06:42:54;;;;;;;;;;;21.50;76.70;;;;;;5033198;28;19979;-76
2022/09/28 06:45:24;;;;;;;;;;;21.50;76.70;;;;;;5033049;28;19933;-76
2022/09/28 06:47:57;;;;;;;;;;;21.50;76.80;;;;;;5033111;28;19931;-76
2022/09/28 06:50:24;;;;;;;;;;;21.50;76.70;;;;;;5033301;28;20403;-76
2022/09/28 06:52:51;;;;;;;;;;;21.50;76.70;;;;;;5033061;28;19964;-76
2022/09/28 06:55:18;;;;;;;;;;;21.50;76.80;;;;;;5034402;28;19925;-76
2022/09/28 06:57:45;;;;;;;;;;;21.50;76.80;;;;;;5036773;28;19973;-76
2022/09/28 07:00:12;;;;;;;;;;;21.50;76.80;;;;;;5036792;28;19957;-76
2022/09/28 07:02:39;;;;;;;;;;;21.50;76.80;;;;;;5036436;28;19952;-76
2022/09/28 07:05:08;;;;;;;;;;;21.50;76.80;;;;;;5036650;28;20034;-76
2022/09/28 07:07:35;;;;;;;;;;;21.50;76.90;;;;;;5036361;28;20389;-76
2022/09/28 07:10:02;;;;;;;;;;;21.50;76.90;;;;;;5036768;28;19964;-76
2022/09/28 07:12:31;;;;;;;;;;;21.50;76.90;;;;;;5036610;28;19925;-76
2022/09/28 07:14:57;;;;;;;;;;;21.40;76.80;;;;;;5036971;28;19925;-76
2022/09/28 07:17:24;;;;;;;;;;;21.50;76.90;;;;;;5036229;28;19972;-76
2022/09/28 07:19:52;;;;;;;;;;;21.50;77.00;;;;;;5036460;28;19967;-76
2022/09/28 07:22:20;;;;;;;;;;;21.40;76.90;;;;;;5036411;28;19975;-76
2022/09/28 07:24:47;;;;;;;;;;;21.40;76.90;;;;;;5035914;28;19964;-76
2022/09/28 07:27:14;;;;;;;;;;;21.40;76.90;;;;;;5036269;28;19925;-76
2022/09/28 07:29:41;;;;;;;;;;;21.40;77.00;;;;;;5035974;28;20415;-76
2022/09/28 07:32:08;;;;;;;;;;;21.40;77.00;;;;;;5036348;28;19971;-76
2022/09/28 07:34:42;;;;;;;;;;;21.40;77.10;;;;;;5036722;28;20301;-76
2022/09/28 07:37:10;;;;;;;;;;;21.40;77.00;;;;;;5037410;28;19932;-76
2022/09/28 07:42:19;;;;;;;;;;;21.40;77.10;;;;;;5035590;28;19925;-76
2022/09/28 07:44:46;;;;;;;;;;;21.40;77.10;;;;;;5036049;28;19982;-76
2022/09/28 07:47:12;;;;;;;;;;;21.40;77.10;;;;;;5036187;28;19991;-75
2022/09/28 07:49:39;;;;;;;;;;;21.40;77.20;;;;;;5036245;28;20384;-75
2022/09/28 07:52:06;;;;;;;;;;;21.40;77.20;;;;;;5036137;28;19948;-75
2022/09/28 07:54:32;;;;;;;;;;;21.40;77.20;;;;;;5035520;28;19968;-75
2022/09/28 07:57:01;;;;;;;;;;;21.40;77.20;;;;;;5035611;28;19964;-75
2022/09/28 07:59:27;;;;;;;;;;;21.40;77.30;;;;;;5035601;28;19925;-75
2022/09/28 08:01:54;;;;;;;;;;;21.40;77.30;;;;;;5035351;28;20384;-75
2022/09/28 08:04:22;;;;;;;;;;;21.40;77.30;;;;;;5035424;28;19979;-75
2022/09/28 08:06:49;;;;;;;;;;;21.40;77.30;;;;;;5034891;28;20400;-75
2022/09/28 08:09:16;;;;;;;;;;;21.40;77.40;;;;;;5035464;28;19929;-76
2022/09/28 08:11:43;;;;;;;;;;;21.40;77.40;;;;;;5035152;28;20384;-76
2022/09/28 08:14:11;;;;;;;;;;;21.40;77.40;;;;;;5035427;28;19999;-76
2022/09/28 08:16:38;;;;;;;;;;;21.40;77.50;;;;;;5035192;28;19990;-75
2022/09/28 08:19:05;;;;;;;;;;;21.40;77.50;;;;;;5035485;28;19976;-75
2022/09/28 08:21:45;;;;;;;;;;;21.40;77.50;;;;;;5035551;28;20339;-76
2022/09/28 08:24:12;;;;;;;;;;;21.40;77.60;;;;;;5035297;28;20296;-76
2022/09/28 08:26:39;;;;;;;;;;;21.40;77.60;;;;;;5035734;28;19925;-76
2022/09/28 08:29:06;;;;;;;;;;;21.40;77.60;;;;;;5036199;28;19979;-76
2022/09/28 08:31:35;;;;;;;;;;;21.40;77.60;;;;;;5035009;28;19971;-76
2022/09/28 08:34:01;;;;;;;;;;;21.40;77.70;;;;;;5034722;28;19971;-76
2022/09/28 08:36:28;;;;;;;;;;;21.40;77.70;;;;;;5035070;28;19975;-76
2022/09/28 08:38:55;;;;;;;;;;;21.40;77.70;;;;;;5035066;28;20337;-76
2022/09/28 08:41:26;;;;;;;;;;;21.40;77.70;;;;;;5034639;28;19925;-76
2022/09/28 08:44:12;;;;;;;;;;;21.40;77.80;;;;;;5034728;28;19965;-76
2022/09/28 08:46:42;;;;;;;;;;;21.40;77.80;;;;;;5034430;28;19929;-76
2022/09/28 08:49:10;;;;;;;;;;;21.40;77.80;;;;;;5034445;28;20355;-76
2022/09/28 08:51:39;;;;;;;;;;;21.30;78.50;;;;;;5034716;28;19976;-76
2022/09/28 08:54:08;;;;;;;;;;;21.40;77.90;;;;;;5034656;28;19932;-76
2022/09/28 08:56:38;;;;;;;;;;;21.30;77.80;;;;;;5034791;28;19960;-76
2022/09/28 08:59:09;;;;;;;;;;;21.30;77.80;;;;;;5034446;28;20377;-76
2022/09/28 09:01:38;;;;;;;;;;;21.40;77.90;;;;;;5034527;28;19964;-76
2022/09/28 09:04:07;;;;;;;;;;;21.30;77.80;;;;;;5034115;28;19925;-76
2022/09/28 09:06:40;;;;;;;;;;;21.30;77.80;;;;;;5034480;28;19929;-76
2022/09/28 09:09:09;;;;;;;;;;;21.30;77.80;;;;;;5034467;28;19960;-76
2022/09/28 09:11:45;;;;;;;;;;;21.30;77.80;;;;;;5034360;28;19975;-76
2022/09/28 09:14:23;;;;;;;;;;;21.30;77.90;;;;;;5034295;28;19925;-76
2022/09/28 09:16:56;;;;;;;;;;;21.30;77.90;;;;;;5033868;28;20377;-76
2022/09/28 09:19:34;;;;;;;;;;;21.30;77.90;;;;;;5033611;28;20347;-76
2022/09/28 09:22:08;;;;;;;;;;;21.30;77.90;;;;;;5034314;28;20280;-76
2022/09/28 09:24:40;;;;;;;;;;;21.30;77.90;;;;;;5034464;28;19925;-76
2022/09/28 09:27:27;;;;;;;;;;;21.30;77.90;;;;;;5034219;28;19925;-76
2022/09/28 09:30:01;;;;;;;;;;;21.30;77.90;;;;;;5034159;28;19932;-76
2022/09/28 09:32:39;;;;;;;;;;;21.30;77.90;;;;;;5033829;28;20357;-76
2022/09/28 09:35:14;;;;;;;;;;;21.30;77.90;;;;;;5033752;28;19925;-76
2022/09/28 09:37:50;;;;;;;;;;;21.30;78.00;;;;;;5033692;28;19964;-76
2022/09/28 09:40:29;;;;;;;;;;;21.30;78.00;;;;;;5034100;28;19932;-76
2022/09/28 09:43:06;;;;;;;;;;;21.30;78.00;;;;;;5034052;28;19925;-76
2022/09/28 09:45:42;;;;;;;;;;;21.30;78.00;;;;;;5033616;28;19925;-76
2022/09/28 09:48:13;;;;;;;;;;;21.30;78.00;;;;;;5033682;28;20455;-76
2022/09/28 09:50:45;;;;;;;;;;;21.30;78.00;;;;;;5034022;28;19941;-76
2022/09/28 09:53:16;;;;;;;;;;;21.30;78.80;;;;;;5033709;28;20359;-76
2022/09/28 09:55:44;;;;;;;;;;;21.30;78.10;;;;;;5034056;28;19964;-76
2022/09/28 09:58:13;;;;;;;;;;;21.30;78.00;;;;;;5033798;28;20023;-76
2022/09/28 10:00:41;;;;;;;;;;;21.30;78.00;;;;;;5033817;28;19979;-76
2022/09/28 10:03:13;;;;;;;;;;;21.30;78.10;;;;;;5033472;28;19937;-76
2022/09/28 10:05:40;;;;;;;;;;;21.30;78.00;;;;;;5033788;28;19976;-76
2022/09/28 10:08:13;;;;;;;;;;;21.30;78.10;;;;;;5033765;28;19925;-76
2022/09/28 10:10:46;;;;;;;;;;;21.30;78.10;;;;;;5033796;28;20038;-76
2022/09/28 10:13:13;;;;;;;;;;;21.30;78.10;;;;;;5033782;28;20274;-76
2022/09/28 10:15:40;;;;;;;;;;;21.30;78.10;;;;;;5033500;28;20269;-76
2022/09/28 10:18:11;;;;;;;;;;;21.30;78.10;;;;;;5033593;28;19973;-76
2022/09/28 10:20:39;;;;;;;;;;;21.30;78.10;;;;;;5033709;28;19964;-76
2022/09/28 10:23:13;;;;;;;;;;;21.30;78.10;;;;;;5033623;28;19961;-76
2022/09/28 10:25:43;;;;;;;;;;;21.30;78.10;;;;;;5033731;28;19929;-76
2022/09/28 10:28:14;;;;;;;;;;;21.30;78.10;;;;;;5034178;28;19975;-76
2022/09/28 10:30:43;;;;;;;;;;;21.30;78.10;;;;;;5037312;28;19973;-76
2022/09/28 10:33:27;;;;;;;;;;;21.30;78.10;;;;;;5037276;28;19968;-76
2022/09/28 10:35:54;;;;;;;;;;;21.30;78.10;;;;;;5037279;28;19964;-77
2022/09/28 10:38:21;;;;;;;;;;;21.30;78.10;;;;;;5037293;28;19973;-77
2022/09/28 10:40:50;;;;;;;;;;;21.30;77.90;;;;;;5037178;28;20018;-77
2022/09/28 10:43:18;;;;;;;;;;;21.20;77.40;;;;;;5037101;28;19971;-77
2022/09/28 10:45:45;;;;;;;;;;;21.20;76.90;;;;;;5036685;28;19972;-77
2022/09/28 10:48:17;;;;;;;;;;;21.10;76.40;;;;;;5037041;28;19975;-77
2022/09/28 10:50:57;;;;;;;;;;;21.10;75.90;;;;;;5036707;28;20356;-76
2022/09/28 10:53:23;;;;;;;;;;;21.00;75.20;;;;;;5037020;28;19956;-76
2022/09/28 10:55:59;;;;;;;;;;;21.00;74.90;;;;;;5060100;23;19967;-73
2022/09/28 10:58:27;;;;;;;;;;;20.90;74.70;;;;;;5036707;28;20379;-73
2022/09/28 11:00:58;;;;;;;;;;;20.90;74.70;;;;;;5036526;28;19979;-73
2022/09/28 11:03:26;;;;;;;;;;;20.90;74.60;;;;;;5037023;28;20047;-73
2022/09/28 11:05:53;;;;;;;;;;;20.90;74.20;;;;;;5036701;28;19971;-74
2022/09/28 11:08:23;;;;;;;;;;;20.90;73.90;;;;;;5036622;28;19964;-74
2022/09/28 11:11:00;;;;;;;;;;;20.90;73.70;;;;;;5036748;28;19929;-73
2022/09/28 11:13:29;;;;;;;;;;;21.00;73.60;;;;;;5036625;28;19971;-73
2022/09/28 11:15:55;;;;;;;;;;;21.00;73.40;;;;;;5036446;28;19975;-73
2022/09/28 11:18:27;;;;;;;;;;;20.90;73.20;;;;;;5036328;28;19932;-73
2022/09/28 11:21:06;;;;;;;;;;;21.00;73.20;;;;;;5036389;28;19975;-73
2022/09/28 11:23:33;;;;;;;;;;;21.00;73.30;;;;;;5036118;28;20403;-73
2022/09/28 11:26:01;;;;;;;;;;;21.00;73.20;;;;;;5036281;28;19979;-73
2022/09/28 11:28:31;;;;;;;;;;;21.10;73.40;;;;;;5036324;28;20042;-73
2022/09/28 11:30:59;;;;;;;;;;;21.10;73.40;;;;;;5036028;28;20395;-74
2022/09/28 11:33:28;;;;;;;;;;;21.10;73.40;;;;;;5037179;28;19979;-73
2022/09/28 11:35:59;;;;;;;;;;;21.10;73.50;;;;;;5036162;28;19929;-73
2022/09/28 11:38:32;;;;;;;;;;;21.10;73.70;;;;;;5036396;28;19936;-74
2022/09/28 11:41:04;;;;;;;;;;;21.40;74.20;;;;;;5036520;28;19986;-73
2022/09/28 11:43:41;;;;;;;;;;;21.20;74.10;;;;;;5036455;28;19960;-73
2022/09/28 11:46:11;;;;;;;;;;;21.20;74.20;;;;;;5036268;28;19925;-73
2022/09/28 11:48:41;;;;;;;;;;;21.20;74.40;;;;;;5037176;28;20353;-72
2022/09/28 11:51:12;;;;;;;;;;;21.20;74.50;;;;;;5035978;28;19925;-75
2022/09/28 11:53:40;;;;;;;;;;;21.30;74.70;;;;;;5035717;28;20066;-75
2022/09/28 11:56:13;;;;;;;;;;;21.20;74.80;;;;;;5035241;28;19964;-75
2022/09/28 11:58:43;;;;;;;;;;;21.30;75.10;;;;;;5035739;28;19971;-78
2022/09/28 12:01:14;;;;;;;;;;;21.30;75.10;;;;;;5035553;28;19925;-77
2022/09/28 12:03:43;;;;;;;;;;;21.30;75.10;;;;;;5035270;28;20410;-77
2022/09/28 12:06:14;;;;;;;;;;;21.30;75.40;;;;;;5035149;28;19970;-77
2022/09/28 12:08:43;;;;;;;;;;;21.30;75.70;;;;;;5035263;28;19931;-77
2022/09/28 12:11:12;;;;;;;;;;;21.40;76.00;;;;;;5035131;28;19929;-77
2022/09/28 12:13:41;;;;;;;;;;;21.40;76.20;;;;;;5035366;28;19968;-76
2022/09/28 12:16:13;;;;;;;;;;;21.40;76.30;;;;;;5035418;28;20391;-76
2022/09/28 12:18:44;;;;;;;;;;;21.40;76.50;;;;;;5035353;28;19979;-76
2022/09/28 12:21:18;;;;;;;;;;;21.40;76.70;;;;;;5035620;28;19964;-75
2022/09/28 12:23:46;;;;;;;;;;;21.50;76.90;;;;;;5035009;28;20004;-75
2022/09/28 12:26:19;;;;;;;;;;;21.50;77.10;;;;;;5035154;28;19972;-75
2022/09/28 12:28:48;;;;;;;;;;;21.50;77.20;;;;;;5035205;28;19968;-75
2022/09/28 12:31:19;;;;;;;;;;;21.60;77.50;;;;;;5035130;28;20336;-75
2022/09/28 12:33:47;;;;;;;;;;;21.60;77.50;;;;;;5034808;28;19976;-75
2022/09/28 12:36:17;;;;;;;;;;;21.60;77.50;;;;;;5034934;28;19971;-76
2022/09/28 12:38:56;;;;;;;;;;;21.60;77.50;;;;;;5034881;28;19960;-76
2022/09/28 12:41:28;;;;;;;;;;;21.60;77.40;;;;;;5034645;28;19980;-76
2022/09/28 12:44:00;;;;;;;;;;;21.60;77.40;;;;;;5034913;28;19964;-76
2022/09/28 12:46:37;;;;;;;;;;;21.60;77.40;;;;;;5034800;28;19979;-77
2022/09/28 12:49:28;;;;;;;;;;;21.60;77.30;;;;;;5035205;28;19984;-79
2022/09/28 12:51:56;;;;;;;;;;;21.60;77.30;;;;;;5034482;28;19925;-77
2022/09/28 12:54:38;;;;;;;;;;;21.70;77.30;;;;;;5036247;28;19925;-77
2022/09/28 12:57:14;;;;;;;;;;;21.70;77.20;;;;;;5035897;28;19925;-76
2022/09/28 12:59:43;;;;;;;;;;;21.60;77.00;;;;;;5034508;28;19979;-77
2022/09/28 13:02:28;;;;;;;;;;;21.60;76.90;;;;;;5034600;28;20367;-76
2022/09/28 13:05:07;;;;;;;;;;;21.60;76.90;;;;;;5035399;28;19964;-76
2022/09/28 13:07:38;;;;;;;;;;;21.60;76.80;;;;;;5039681;28;19932;-76
2022/09/28 13:10:12;;;;;;;;;;;21.60;76.70;;;;;;5040232;28;19925;-76
2022/09/28 13:12:45;;;;;;;;;;;21.60;76.60;;;;;;5039834;28;20372;-76
2022/09/28 13:15:26;;;;;;;;;;;21.60;76.50;;;;;;5038852;28;19979;-76
2022/09/28 13:17:59;;;;;;;;;;;21.60;76.50;;;;;;5040380;28;19925;-76
2022/09/28 13:20:35;;;;;;;;;;;21.60;76.40;;;;;;5041056;28;19932;-77
2022/09/28 13:23:09;;;;;;;;;;;21.60;76.40;;;;;;5040301;28;19929;-77
2022/09/28 13:25:39;;;;;;;;;;;21.60;76.30;;;;;;5040336;28;19936;-77
2022/09/28 13:28:07;;;;;;;;;;;21.60;76.20;;;;;;5041163;28;20005;-82
2022/09/28 13:30:36;;;;;;;;;;;21.60;76.20;;;;;;5043364;28;19925;-81
2022/09/28 13:33:05;;;;;;;;;;;21.60;76.10;;;;;;5044002;28;20062;-81
2022/09/28 13:35:34;;;;;;;;;;;21.60;76.10;;;;;;5042000;28;20341;-81
2022/09/28 13:38:29;;;;;;;;;;;21.50;76.00;;;;;;5043019;28;20269;-80
2022/09/28 13:41:12;;;;;;;;;;;21.60;76.10;;;;;;5037990;28;20380;-79
2022/09/28 13:43:46;;;;;;;;;;;21.50;76.00;;;;;;5036050;28;19925;-80
2022/09/28 13:46:19;;;;;;;;;;;21.50;76.10;;;;;;5038817;28;20288;-81
2022/09/28 13:48:51;;;;;;;;;;;21.50;76.20;;;;;;5038231;28;20343;-81
2022/09/28 13:51:25;;;;;;;;;;;21.50;76.20;;;;;;5038294;28;19979;-80
2022/09/28 13:53:59;;;;;;;;;;;21.50;76.30;;;;;;5038525;28;19925;-81
2022/09/28 13:56:30;;;;;;;;;;;21.50;76.30;;;;;;5038034;28;19948;-81
2022/09/28 13:58:58;;;;;;;;;;;21.50;76.30;;;;;;5039120;28;19986;-81
2022/09/28 14:01:28;;;;;;;;;;;21.50;76.40;;;;;;5038312;28;20446;-81
2022/09/28 14:03:56;;;;;;;;;;;21.50;76.50;;;;;;5040303;28;19925;-80
2022/09/28 14:06:25;;;;;;;;;;;21.50;76.60;;;;;;5042861;28;19925;-81
2022/09/28 14:09:09;;;;;;;;;;;21.50;76.70;;;;;;5041598;28;19925;-77
2022/09/28 14:11:44;;;;;;;;;;;21.50;76.70;;;;;;5041520;28;20452;-81
2022/09/28 14:14:29;;;;;;;;;;;21.50;76.80;;;;;;5043986;28;20444;-81
2022/09/28 14:17:14;;;;;;;;;;;21.50;76.90;;;;;;5041891;28;19925;-78
2022/09/28 14:19:42;;;;;;;;;;;21.50;77.10;;;;;;5040852;28;19987;-78
2022/09/28 14:22:16;;;;;;;;;;;21.50;77.10;;;;;;5041074;28;19929;-79
2022/09/28 14:24:59;;;;;;;;;;;21.50;77.20;;;;;;5044558;28;19925;-78
2022/09/28 14:27:40;;;;;;;;;;;21.50;77.30;;;;;;5042847;28;19925;-79
2022/09/28 14:30:16;;;;;;;;;;;21.50;77.40;;;;;;5042019;28;19936;-79
2022/09/28 14:32:49;;;;;;;;;;;21.50;77.50;;;;;;5043181;28;19925;-79
2022/09/28 14:35:19;;;;;;;;;;;21.50;77.50;;;;;;5041684;28;20039;-81
2022/09/28 14:43:35;;;;;;;;;;;21.50;77.70;;;;;;5041848;28;19928;-79
2022/09/28 14:46:20;;;;;;;;;;;21.40;77.70;;;;;;5041375;28;19983;-79
2022/09/28 14:48:49;;;;;;;;;;;21.40;77.80;;;;;;5041422;28;20008;-79
2022/09/28 14:51:36;;;;;;;;;;;21.40;77.90;;;;;;5041456;28;19976;-79
2022/09/28 14:54:05;;;;;;;;;;;21.40;78.00;;;;;;5039350;28;19925;-79
2022/09/28 14:56:33;;;;;;;;;;;21.40;78.00;;;;;;5039012;28;19932;-80
2022/09/28 14:59:00;;;;;;;;;;;21.40;78.10;;;;;;5039078;28;19925;-81
2022/09/28 15:01:29;;;;;;;;;;;21.40;78.20;;;;;;5040903;28;20281;-80
2022/09/28 15:03:56;;;;;;;;;;;21.40;78.30;;;;;;5044375;28;19933;-82
2022/09/28 15:06:24;;;;;;;;;;;21.40;78.40;;;;;;5038694;28;19925;-85
2022/09/28 15:08:50;;;;;;;;;;;21.50;78.70;;;;;;5039193;28;19980;-85
2022/09/28 15:11:21;;;;;;;;;;;21.50;78.80;;;;;;5040204;28;19925;-84
2022/09/28 15:13:48;;;;;;;;;;;21.50;78.90;;;;;;5040503;28;20391;-82
2022/09/28 15:16:16;;;;;;;;;;;21.50;78.90;;;;;;5039865;28;19932;-81
2022/09/28 15:19:04;;;;;;;;;;;21.50;79.00;;;;;;5041491;28;19925;-82
2022/09/28 15:21:35;;;;;;;;;;;21.50;79.10;;;;;;5042244;28;19948;-79
2022/09/28 15:24:01;;;;;;;;;;;21.50;79.20;;;;;;5044312;28;20024;-80
2022/09/28 15:26:31;;;;;;;;;;;21.20;78.90;;;;;;5046378;28;19929;-80
2022/09/28 15:28:58;;;;;;;;;;;21.50;79.30;;;;;;5047776;28;19925;-79
2022/09/28 15:31:26;;;;;;;;;;;21.50;79.30;;;;;;5042796;28;19925;-80
2022/09/28 15:36:38;;;;;;;;;;;21.50;79.40;;;;;;5035958;28;20339;-74
2022/09/28 15:39:06;;;;;;;;;;;21.50;79.70;;;;;;5036053;28;19925;-75
2022/09/28 15:41:34;;;;;;;;;;;21.50;80.00;;;;;;5035617;28;20372;-75
2022/09/28 15:44:18;;;;;;;;;;;21.50;80.30;;;;;;5035933;28;19983;-75
2022/09/28 15:46:47;;;;;;;;;;;21.60;80.80;;;;;;5036032;28;20005;-75
2022/09/28 15:49:22;;;;;;;;;;;21.60;81.20;;;;;;5035643;28;19925;-75
2022/09/28 15:51:51;;;;;;;;;;;21.60;81.20;;;;;;5035902;28;19972;-75
2022/09/28 15:54:22;;;;;;;;;;;21.60;81.30;;;;;;5035348;28;20389;-76
2022/09/28 15:56:58;;;;;;;;;;;21.70;81.80;;;;;;5035813;28;19929;-75
2022/09/28 15:59:30;;;;;;;;;;;21.70;82.20;;;;;;5035660;28;19925;-77
2022/09/28 16:02:09;;;;;;;;;;;21.70;82.70;;;;;;5035648;28;19933;-75
2022/09/28 16:04:38;;;;;;;;;;;21.70;83.00;;;;;;5035594;28;20042;-76
2022/09/28 16:07:05;;;;;;;;;;;21.70;83.30;;;;;;5035268;28;19983;-75
2022/09/28 16:09:33;;;;;;;;;;;21.70;83.70;;;;;;5035524;28;19925;-76
2022/09/28 16:12:07;;;;;;;;;;;21.70;84.10;;;;;;5036477;28;19929;-77
2022/09/28 16:14:34;;;;;;;;;;;21.70;84.30;;;;;;5034953;28;19971;-76
2022/09/28 16:17:02;;;;;;;;;;;21.70;84.50;;;;;;5035406;28;19960;-76
2022/09/28 16:19:30;;;;;;;;;;;21.70;84.80;;;;;;5035120;28;19936;-78
2022/09/28 16:21:58;;;;;;;;;;;21.70;85.10;;;;;;5035027;28;19925;-76
2022/09/28 16:24:27;;;;;;;;;;;21.70;85.40;;;;;;5034886;28;20266;-77
2022/09/28 16:26:56;;;;;;;;;;;21.70;85.60;;;;;;5035260;28;20307;-76
2022/09/28 16:29:25;;;;;;;;;;;21.70;85.80;;;;;;5035078;28;19925;-77
2022/09/28 16:31:54;;;;;;;;;;;21.70;86.20;;;;;;5034144;28;21600;-77
2022/09/28 16:34:24;;;;;;;;;;;21.70;86.40;;;;;;5035191;28;19990;-78
2022/09/28 16:36:51;;;;;;;;;;;21.70;86.80;;;;;;5035057;28;19964;-77
2022/09/28 16:39:18;;;;;;;;;;;21.70;87.10;;;;;;5034723;28;20416;-76
2022/09/28 16:41:46;;;;;;;;;;;21.70;87.00;;;;;;5034872;28;19925;-76
2022/09/28 16:44:16;;;;;;;;;;;21.70;87.10;;;;;;5034561;28;20372;-77
2022/09/28 16:46:44;;;;;;;;;;;21.70;87.20;;;;;;5036546;28;19925;-75
2022/09/28 16:49:15;;;;;;;;;;;21.70;87.50;;;;;;5038133;28;19932;-76
2022/09/28 16:51:44;;;;;;;;;;;21.70;87.60;;;;;;5036914;28;19948;-75
2022/09/28 16:56:58;;;;;;;;;;;21.70;87.90;;;;;;5037355;28;19928;-75
2022/09/28 16:59:24;;;;;;;;;;;21.60;88.00;;;;;;5036612;28;19929;-75
2022/09/28 17:01:53;;;;;;;;;;;21.60;88.10;;;;;;5036653;28;19964;-75
2022/09/28 17:04:22;;;;;;;;;;;21.60;88.20;;;;;;5036450;28;19968;-75
2022/09/28 17:06:49;;;;;;;;;;;21.60;88.30;;;;;;5037007;28;19924;-75
2022/09/28 17:09:16;;;;;;;;;;;21.60;88.40;;;;;;5038545;28;19952;-75
2022/09/28 17:11:43;;;;;;;;;;;21.60;88.50;;;;;;5036417;28;20327;-74
2022/09/28 17:14:10;;;;;;;;;;;21.60;88.60;;;;;;5036688;28;19975;-75
2022/09/28 17:16:38;;;;;;;;;;;21.60;88.70;;;;;;5036574;28;19947;-74
2022/09/28 17:19:12;;;;;;;;;;;21.60;88.80;;;;;;5036691;28;19925;-77
2022/09/28 17:21:39;;;;;;;;;;;21.60;88.80;;;;;;5035523;28;19984;-77
2022/09/28 17:24:06;;;;;;;;;;;21.60;89.00;;;;;;5036761;28;19933;-75
2022/09/28 17:26:34;;;;;;;;;;;21.60;89.00;;;;;;5036462;28;19925;-77
2022/09/28 17:29:01;;;;;;;;;;;21.60;89.10;;;;;;5036420;28;19929;-77
2022/09/28 17:31:29;;;;;;;;;;;21.60;89.20;;;;;;5034801;28;19925;-80
2022/09/28 17:33:55;;;;;;;;;;;21.60;89.40;;;;;;5038074;28;19926;-81
2022/09/28 17:36:24;;;;;;;;;;;21.60;89.50;;;;;;5037752;28;19925;-78
2022/09/28 17:38:51;;;;;;;;;;;21.60;89.50;;;;;;5038310;28;20012;-82
2022/09/28 17:41:19;;;;;;;;;;;21.60;89.50;;;;;;5037869;28;19925;-80
2022/09/28 17:43:45;;;;;;;;;;;21.50;89.30;;;;;;5037600;28;19947;-80
2022/09/28 17:46:17;;;;;;;;;;;21.50;89.30;;;;;;5037596;28;19987;-80
2022/09/28 17:48:45;;;;;;;;;;;21.50;89.30;;;;;;5037826;28;20423;-81
2022/09/28 17:51:12;;;;;;;;;;;21.50;89.30;;;;;;5037663;28;20023;-80
2022/09/28 17:53:41;;;;;;;;;;;21.50;89.30;;;;;;5037721;28;19925;-80
2022/09/28 17:56:08;;;;;;;;;;;21.50;89.30;;;;;;5038822;28;19925;-81
2022/09/28 17:58:35;;;;;;;;;;;21.50;89.20;;;;;;5038343;28;20381;-81
2022/09/28 18:01:05;;;;;;;;;;;21.50;89.10;;;;;;5038751;28;19948;-80
2022/09/28 18:03:32;;;;;;;;;;;21.50;89.10;;;;;;5038763;28;19925;-80
2022/09/28 18:06:01;;;;;;;;;;;21.50;89.10;;;;;;5040459;28;19964;-82
2022/09/28 18:08:28;;;;;;;;;;;21.50;89.10;;;;;;5041411;28;19925;-80
2022/09/28 18:10:56;;;;;;;;;;;21.50;89.10;;;;;;5037453;28;19925;-81
2022/09/28 18:13:23;;;;;;;;;;;21.50;89.10;;;;;;5041365;28;19979;-78
2022/09/28 18:15:50;;;;;;;;;;;21.50;89.10;;;;;;5037884;28;19926;-79
2022/09/28 18:18:17;;;;;;;;;;;21.50;89.10;;;;;;5037361;28;19926;-79
2022/09/28 18:20:43;;;;;;;;;;;21.50;89.10;;;;;;5037797;28;19925;-81
2022/09/28 18:23:10;;;;;;;;;;;21.50;89.10;;;;;;5041624;28;19929;-80
2022/09/28 18:25:39;;;;;;;;;;;21.50;89.10;;;;;;5041362;28;19975;-80
2022/09/28 18:28:07;;;;;;;;;;;21.50;89.20;;;;;;5040746;28;19925;-80
2022/09/28 18:30:36;;;;;;;;;;;21.50;89.10;;;;;;5038766;28;19925;-79
2022/09/28 18:33:03;;;;;;;;;;;21.50;89.20;;;;;;5041752;28;19951;-78
2022/09/28 18:35:30;;;;;;;;;;;21.50;89.20;;;;;;5039604;28;19925;-81
2022/09/28 18:37:57;;;;;;;;;;;21.50;89.10;;;;;;5036608;28;19955;-80
2022/09/28 18:40:24;;;;;;;;;;;21.50;89.20;;;;;;5038242;28;19979;-82
2022/09/28 18:42:50;;;;;;;;;;;21.50;89.10;;;;;;5040389;28;19979;-82
2022/09/28 18:45:18;;;;;;;;;;;21.50;89.10;;;;;;5038356;28;19925;-80
2022/09/28 18:47:46;;;;;;;;;;;21.50;89.10;;;;;;5037285;28;20011;-80
2022/09/28 18:50:14;;;;;;;;;;;21.50;89.10;;;;;;5038343;28;19925;-80
2022/09/28 18:52:41;;;;;;;;;;;21.50;89.00;;;;;;5041141;28;19929;-80
2022/09/28 18:55:08;;;;;;;;;;;21.50;89.10;;;;;;5041213;28;20446;-80
2022/09/28 18:57:35;;;;;;;;;;;21.50;89.00;;;;;;5041626;28;19925;-80
2022/09/28 19:00:02;;;;;;;;;;;21.50;88.90;;;;;;5041582;28;19925;-80
2022/09/28 19:02:30;;;;;;;;;;;21.50;88.90;;;;;;5041605;28;19925;-80